sensor_id;sensor_type;location;lat;lon;timestamp;P1;durP1;ratioP1;P2;durP2;ratioP2
57707;SDS011;43540;51.690;9.562;2023-09-19T00:00:52;4.40;;;1.00;;
57707;SDS011;43540;51.690;9.562;2023-09-19T00:03:22;1.95;;;0.88;;
57707;SDS011;43540;51.690;9.562;2023-09-19T00:05:49;1.35;;;0.77;;
57707;SDS011;43540;51.690;9.562;2023-09-19T00:08:16;1.95;;;1.17;;
57707;SDS011;43540;51.690;9.562;2023-09-19T00:10:43;2.58;;;0.95;;
57707;SDS011;43540;51.690;9.562;2023-09-19T00:13:10;2.30;;;0.70;;
57707;SDS011;43540;51.690;9.562;2023-09-19T00:15:43;1.88;;;0.85;;
57707;SDS011;43540;51.690;9.562;2023-09-19T00:18:22;1.73;;;0.90;;
57707;SDS011;43540;51.690;9.562;2023-09-19T00:20:49;3.13;;;1.00;;
57707;SDS011;43540;51.690;9.562;2023-09-19T00:23:19;2.03;;;0.90;;
57707;SDS011;43540;51.690;9.562;2023-09-19T00:25:46;2.72;;;0.75;;
57707;SDS011;43540;51.690;9.562;2023-09-19T00:28:13;2.22;;;0.90;;
57707;SDS011;43540;51.690;9.562;2023-09-19T00:30:42;2.53;;;1.25;;
57707;SDS011;43540;51.690;9.562;2023-09-19T00:33:09;1.88;;;0.75;;
57707;SDS011;43540;51.690;9.562;2023-09-19T00:35:37;2.92;;;0.95;;
57707;SDS011;43540;51.690;9.562;2023-09-19T00:38:04;2.28;;;1.00;;
57707;SDS011;43540;51.690;9.562;2023-09-19T00:40:33;1.90;;;0.93;;
57707;SDS011;43540;51.690;9.562;2023-09-19T00:43:00;1.55;;;0.90;;
57707;SDS011;43540;51.690;9.562;2023-09-19T00:45:26;2.38;;;1.10;;
57707;SDS011;43540;51.690;9.562;2023-09-19T00:47:55;2.10;;;0.80;;
57707;SDS011;43540;51.690;9.562;2023-09-19T00:50:24;2.78;;;0.93;;
57707;SDS011;43540;51.690;9.562;2023-09-19T00:52:55;1.27;;;0.80;;
57707;SDS011;43540;51.690;9.562;2023-09-19T00:55:23;1.15;;;0.90;;
57707;SDS011;43540;51.690;9.562;2023-09-19T00:57:51;5.30;;;0.95;;
57707;SDS011;43540;51.690;9.562;2023-09-19T01:00:19;2.92;;;1.20;;
57707;SDS011;43540;51.690;9.562;2023-09-19T01:02:47;1.83;;;1.00;;
57707;SDS011;43540;51.690;9.562;2023-09-19T01:05:14;1.83;;;0.70;;
57707;SDS011;43540;51.690;9.562;2023-09-19T01:07:45;1.77;;;0.68;;
57707;SDS011;43540;51.690;9.562;2023-09-19T01:10:12;2.45;;;0.75;;
57707;SDS011;43540;51.690;9.562;2023-09-19T01:15:38;1.85;;;0.80;;
57707;SDS011;43540;51.690;9.562;2023-09-19T01:26:30;2.75;;;0.93;;
57707;SDS011;43540;51.690;9.562;2023-09-19T01:32:03;1.42;;;0.70;;
57707;SDS011;43540;51.690;9.562;2023-09-19T01:37:20;1.60;;;0.80;;
57707;SDS011;43540;51.690;9.562;2023-09-19T01:39:53;2.08;;;0.75;;
57707;SDS011;43540;51.690;9.562;2023-09-19T01:42:24;2.35;;;0.93;;
57707;SDS011;43540;51.690;9.562;2023-09-19T01:53:33;2.63;;;0.77;;
57707;SDS011;43540;51.690;9.562;2023-09-19T01:56:07;1.65;;;1.00;;
57707;SDS011;43540;51.690;9.562;2023-09-19T01:58:43;0.90;;;0.80;;
57707;SDS011;43540;51.690;9.562;2023-09-19T02:01:19;1.42;;;0.63;;
57707;SDS011;43540;51.690;9.562;2023-09-19T02:03:49;2.92;;;1.17;;
57707;SDS011;43540;51.690;9.562;2023-09-19T02:06:17;5.13;;;1.20;;
57707;SDS011;43540;51.690;9.562;2023-09-19T02:08:45;2.92;;;0.93;;
57707;SDS011;43540;51.690;9.562;2023-09-19T02:11:12;1.20;;;1.00;;
57707;SDS011;43540;51.690;9.562;2023-09-19T02:13:40;1.00;;;0.88;;
57707;SDS011;43540;51.690;9.562;2023-09-19T02:16:08;2.05;;;1.10;;
57707;SDS011;43540;51.690;9.562;2023-09-19T02:18:38;3.22;;;1.10;;
57707;SDS011;43540;51.690;9.562;2023-09-19T02:21:05;2.45;;;1.15;;
57707;SDS011;43540;51.690;9.562;2023-09-19T02:23:38;2.03;;;1.33;;
57707;SDS011;43540;51.690;9.562;2023-09-19T02:26:06;2.97;;;1.10;;
57707;SDS011;43540;51.690;9.562;2023-09-19T02:28:33;1.48;;;1.20;;
57707;SDS011;43540;51.690;9.562;2023-09-19T02:31:02;1.23;;;1.00;;
57707;SDS011;43540;51.690;9.562;2023-09-19T02:33:31;2.67;;;1.27;;
57707;SDS011;43540;51.690;9.562;2023-09-19T02:35:59;2.83;;;1.65;;
57707;SDS011;43540;51.690;9.562;2023-09-19T02:38:27;3.00;;;1.30;;
57707;SDS011;43540;51.690;9.562;2023-09-19T02:40:55;2.90;;;1.70;;
57707;SDS011;43540;51.690;9.562;2023-09-19T02:43:22;6.85;;;3.05;;
57707;SDS011;43540;51.690;9.562;2023-09-19T02:45:50;3.10;;;2.20;;
57707;SDS011;43540;51.690;9.562;2023-09-19T02:48:19;5.65;;;2.58;;
57707;SDS011;43540;51.690;9.562;2023-09-19T02:50:50;6.35;;;3.30;;
57707;SDS011;43540;51.690;9.562;2023-09-19T02:53:17;6.28;;;3.47;;
57707;SDS011;43540;51.690;9.562;2023-09-19T02:55:46;8.88;;;4.50;;
57707;SDS011;43540;51.690;9.562;2023-09-19T02:58:15;9.57;;;4.35;;
57707;SDS011;43540;51.690;9.562;2023-09-19T03:00:42;8.45;;;4.10;;
57707;SDS011;43540;51.690;9.562;2023-09-19T03:03:14;9.00;;;4.20;;
57707;SDS011;43540;51.690;9.562;2023-09-19T03:05:43;8.10;;;4.65;;
57707;SDS011;43540;51.690;9.562;2023-09-19T03:08:13;7.30;;;4.47;;
57707;SDS011;43540;51.690;9.562;2023-09-19T03:10:46;7.20;;;4.25;;
57707;SDS011;43540;51.690;9.562;2023-09-19T03:13:14;7.75;;;4.25;;
57707;SDS011;43540;51.690;9.562;2023-09-19T03:15:42;6.97;;;4.50;;
57707;SDS011;43540;51.690;9.562;2023-09-19T03:18:14;7.80;;;4.47;;
57707;SDS011;43540;51.690;9.562;2023-09-19T03:20:41;6.47;;;4.65;;
57707;SDS011;43540;51.690;9.562;2023-09-19T03:23:07;7.78;;;4.20;;
57707;SDS011;43540;51.690;9.562;2023-09-19T03:25:34;8.57;;;4.68;;
57707;SDS011;43540;51.690;9.562;2023-09-19T03:28:02;9.85;;;4.68;;
57707;SDS011;43540;51.690;9.562;2023-09-19T03:30:32;9.57;;;4.55;;
57707;SDS011;43540;51.690;9.562;2023-09-19T03:33:00;9.52;;;4.63;;
57707;SDS011;43540;51.690;9.562;2023-09-19T03:35:27;8.98;;;4.63;;
57707;SDS011;43540;51.690;9.562;2023-09-19T03:37:54;9.63;;;4.70;;
57707;SDS011;43540;51.690;9.562;2023-09-19T03:40:21;7.63;;;4.20;;
57707;SDS011;43540;51.690;9.562;2023-09-19T03:42:51;10.38;;;5.10;;
57707;SDS011;43540;51.690;9.562;2023-09-19T03:45:18;8.18;;;4.10;;
57707;SDS011;43540;51.690;9.562;2023-09-19T03:47:45;9.15;;;4.72;;
57707;SDS011;43540;51.690;9.562;2023-09-19T03:50:15;10.80;;;4.90;;
57707;SDS011;43540;51.690;9.562;2023-09-19T03:52:44;8.23;;;4.80;;
57707;SDS011;43540;51.690;9.562;2023-09-19T03:55:11;10.00;;;5.47;;
57707;SDS011;43540;51.690;9.562;2023-09-19T03:57:38;9.80;;;5.00;;
57707;SDS011;43540;51.690;9.562;2023-09-19T04:00:05;9.05;;;4.90;;
57707;SDS011;43540;51.690;9.562;2023-09-19T04:02:38;8.38;;;4.80;;
57707;SDS011;43540;51.690;9.562;2023-09-19T04:05:06;8.68;;;4.75;;
57707;SDS011;43540;51.690;9.562;2023-09-19T04:07:33;7.78;;;4.90;;
57707;SDS011;43540;51.690;9.562;2023-09-19T04:10:01;8.20;;;4.57;;
57707;SDS011;43540;51.690;9.562;2023-09-19T04:12:28;6.40;;;4.35;;
57707;SDS011;43540;51.690;9.562;2023-09-19T04:14:55;9.25;;;4.60;;
57707;SDS011;43540;51.690;9.562;2023-09-19T04:17:22;9.85;;;4.65;;
57707;SDS011;43540;51.690;9.562;2023-09-19T04:19:50;9.77;;;4.82;;
57707;SDS011;43540;51.690;9.562;2023-09-19T04:22:17;11.02;;;4.80;;
57707;SDS011;43540;51.690;9.562;2023-09-19T04:24:43;7.18;;;4.13;;
57707;SDS011;43540;51.690;9.562;2023-09-19T04:27:10;9.07;;;4.70;;
57707;SDS011;43540;51.690;9.562;2023-09-19T04:29:41;7.38;;;4.55;;
57707;SDS011;43540;51.690;9.562;2023-09-19T04:32:10;10.30;;;4.80;;
57707;SDS011;43540;51.690;9.562;2023-09-19T04:34:39;8.30;;;4.43;;
57707;SDS011;43540;51.690;9.562;2023-09-19T04:37:06;9.73;;;4.78;;
57707;SDS011;43540;51.690;9.562;2023-09-19T04:39:33;12.02;;;4.57;;
57707;SDS011;43540;51.690;9.562;2023-09-19T04:42:00;9.77;;;4.18;;
57707;SDS011;43540;51.690;9.562;2023-09-19T04:44:27;7.53;;;4.43;;
57707;SDS011;43540;51.690;9.562;2023-09-19T04:46:57;9.30;;;4.80;;
57707;SDS011;43540;51.690;9.562;2023-09-19T04:49:24;8.13;;;4.20;;
57707;SDS011;43540;51.690;9.562;2023-09-19T04:51:51;5.20;;;4.03;;
57707;SDS011;43540;51.690;9.562;2023-09-19T04:54:19;7.57;;;4.53;;
57707;SDS011;43540;51.690;9.562;2023-09-19T04:56:45;7.20;;;4.32;;
57707;SDS011;43540;51.690;9.562;2023-09-19T04:59:12;9.57;;;4.35;;
57707;SDS011;43540;51.690;9.562;2023-09-19T05:01:39;7.03;;;4.13;;
57707;SDS011;43540;51.690;9.562;2023-09-19T05:04:06;9.73;;;5.00;;
57707;SDS011;43540;51.690;9.562;2023-09-19T05:06:33;8.70;;;4.10;;
57707;SDS011;43540;51.690;9.562;2023-09-19T05:09:02;6.43;;;4.18;;
57707;SDS011;43540;51.690;9.562;2023-09-19T05:11:32;7.13;;;4.25;;
57707;SDS011;43540;51.690;9.562;2023-09-19T05:13:59;7.35;;;4.10;;
57707;SDS011;43540;51.690;9.562;2023-09-19T05:16:30;9.07;;;4.35;;
57707;SDS011;43540;51.690;9.562;2023-09-19T05:19:01;9.25;;;4.28;;
57707;SDS011;43540;51.690;9.562;2023-09-19T05:21:30;7.22;;;4.10;;
57707;SDS011;43540;51.690;9.562;2023-09-19T05:23:57;9.27;;;3.95;;
57707;SDS011;43540;51.690;9.562;2023-09-19T05:26:24;10.05;;;4.60;;
57707;SDS011;43540;51.690;9.562;2023-09-19T05:28:51;7.20;;;3.80;;
57707;SDS011;43540;51.690;9.562;2023-09-19T05:31:19;8.98;;;3.85;;
57707;SDS011;43540;51.690;9.562;2023-09-19T05:33:47;10.23;;;3.83;;
57707;SDS011;43540;51.690;9.562;2023-09-19T05:36:14;9.65;;;3.88;;
57707;SDS011;43540;51.690;9.562;2023-09-19T05:38:42;9.07;;;3.67;;
57707;SDS011;43540;51.690;9.562;2023-09-19T05:41:13;8.00;;;4.03;;
57707;SDS011;43540;51.690;9.562;2023-09-19T05:43:40;7.90;;;3.83;;
57707;SDS011;43540;51.690;9.562;2023-09-19T05:46:08;10.05;;;3.97;;
57707;SDS011;43540;51.690;9.562;2023-09-19T05:48:35;9.30;;;3.67;;
57707;SDS011;43540;51.690;9.562;2023-09-19T05:51:02;8.32;;;3.35;;
57707;SDS011;43540;51.690;9.562;2023-09-19T05:53:29;7.65;;;3.38;;
57707;SDS011;43540;51.690;9.562;2023-09-19T05:55:56;11.27;;;4.03;;
57707;SDS011;43540;51.690;9.562;2023-09-19T05:58:23;7.63;;;3.13;;
57707;SDS011;43540;51.690;9.562;2023-09-19T06:00:50;7.43;;;3.42;;
57707;SDS011;43540;51.690;9.562;2023-09-19T06:03:16;7.53;;;3.20;;
57707;SDS011;43540;51.690;9.562;2023-09-19T06:05:45;10.25;;;3.53;;
57707;SDS011;43540;51.690;9.562;2023-09-19T06:08:12;8.07;;;3.38;;
57707;SDS011;43540;51.690;9.562;2023-09-19T06:10:39;7.72;;;3.47;;
57707;SDS011;43540;51.690;9.562;2023-09-19T06:13:06;6.55;;;3.47;;
57707;SDS011;43540;51.690;9.562;2023-09-19T06:15:36;5.88;;;2.92;;
57707;SDS011;43540;51.690;9.562;2023-09-19T06:18:10;8.85;;;2.90;;
57707;SDS011;43540;51.690;9.562;2023-09-19T06:20:41;7.90;;;2.60;;
57707;SDS011;43540;51.690;9.562;2023-09-19T06:23:11;9.95;;;3.05;;
57707;SDS011;43540;51.690;9.562;2023-09-19T06:25:38;6.88;;;2.78;;
57707;SDS011;43540;51.690;9.562;2023-09-19T06:28:05;6.25;;;2.70;;
57707;SDS011;43540;51.690;9.562;2023-09-19T06:30:34;6.47;;;2.80;;
57707;SDS011;43540;51.690;9.562;2023-09-19T06:33:01;10.15;;;3.50;;
57707;SDS011;43540;51.690;9.562;2023-09-19T06:35:31;9.68;;;3.13;;
57707;SDS011;43540;51.690;9.562;2023-09-19T06:38:03;10.60;;;2.83;;
57707;SDS011;43540;51.690;9.562;2023-09-19T06:40:30;7.10;;;2.80;;
57707;SDS011;43540;51.690;9.562;2023-09-19T06:42:57;6.55;;;2.95;;
57707;SDS011;43540;51.690;9.562;2023-09-19T06:45:24;6.85;;;2.88;;
57707;SDS011;43540;51.690;9.562;2023-09-19T06:47:53;6.20;;;2.95;;
57707;SDS011;43540;51.690;9.562;2023-09-19T06:50:25;9.63;;;3.00;;
57707;SDS011;43540;51.690;9.562;2023-09-19T06:52:54;7.93;;;2.90;;
57707;SDS011;43540;51.690;9.562;2023-09-19T06:55:23;13.73;;;3.42;;
57707;SDS011;43540;51.690;9.562;2023-09-19T06:57:52;7.82;;;2.85;;
57707;SDS011;43540;51.690;9.562;2023-09-19T07:00:21;7.43;;;3.15;;
57707;SDS011;43540;51.690;9.562;2023-09-19T07:02:58;8.95;;;2.80;;
57707;SDS011;43540;51.690;9.562;2023-09-19T07:05:28;11.20;;;3.25;;
57707;SDS011;43540;51.690;9.562;2023-09-19T07:07:55;6.80;;;3.03;;
57707;SDS011;43540;51.690;9.562;2023-09-19T07:10:22;8.43;;;2.97;;
57707;SDS011;43540;51.690;9.562;2023-09-19T07:12:57;14.52;;;3.28;;
57707;SDS011;43540;51.690;9.562;2023-09-19T07:15:25;8.63;;;3.10;;
57707;SDS011;43540;51.690;9.562;2023-09-19T07:17:53;14.23;;;2.97;;
57707;SDS011;43540;51.690;9.562;2023-09-19T07:20:23;9.82;;;3.13;;
57707;SDS011;43540;51.690;9.562;2023-09-19T07:22:53;8.30;;;3.10;;
57707;SDS011;43540;51.690;9.562;2023-09-19T07:25:22;9.98;;;3.33;;
57707;SDS011;43540;51.690;9.562;2023-09-19T07:27:49;10.35;;;3.17;;
57707;SDS011;43540;51.690;9.562;2023-09-19T07:30:17;7.43;;;3.17;;
57707;SDS011;43540;51.690;9.562;2023-09-19T07:32:44;9.35;;;3.42;;
57707;SDS011;43540;51.690;9.562;2023-09-19T07:35:11;7.53;;;3.22;;
57707;SDS011;43540;51.690;9.562;2023-09-19T07:37:38;9.02;;;3.58;;
57707;SDS011;43540;51.690;9.562;2023-09-19T07:40:06;7.78;;;3.00;;
57707;SDS011;43540;51.690;9.562;2023-09-19T07:42:36;10.05;;;3.78;;
57707;SDS011;43540;51.690;9.562;2023-09-19T07:45:07;9.50;;;3.35;;
57707;SDS011;43540;51.690;9.562;2023-09-19T07:47:34;9.25;;;3.78;;
57707;SDS011;43540;51.690;9.562;2023-09-19T07:50:02;7.55;;;3.45;;
57707;SDS011;43540;51.690;9.562;2023-09-19T07:52:30;6.90;;;3.03;;
57707;SDS011;43540;51.690;9.562;2023-09-19T07:54:56;8.75;;;3.53;;
57707;SDS011;43540;51.690;9.562;2023-09-19T07:57:28;9.00;;;2.90;;
57707;SDS011;43540;51.690;9.562;2023-09-19T07:59:55;7.72;;;3.30;;
57707;SDS011;43540;51.690;9.562;2023-09-19T08:02:23;8.85;;;2.88;;
57707;SDS011;43540;51.690;9.562;2023-09-19T08:04:50;7.25;;;3.30;;
57707;SDS011;43540;51.690;9.562;2023-09-19T08:07:18;9.18;;;3.63;;
57707;SDS011;43540;51.690;9.562;2023-09-19T08:09:45;8.80;;;3.20;;
57707;SDS011;43540;51.690;9.562;2023-09-19T08:12:12;9.40;;;3.47;;
57707;SDS011;43540;51.690;9.562;2023-09-19T08:14:41;10.63;;;3.55;;
57707;SDS011;43540;51.690;9.562;2023-09-19T08:17:08;9.32;;;3.25;;
57707;SDS011;43540;51.690;9.562;2023-09-19T08:19:35;8.55;;;3.10;;
57707;SDS011;43540;51.690;9.562;2023-09-19T08:22:02;11.45;;;3.20;;
57707;SDS011;43540;51.690;9.562;2023-09-19T08:24:32;11.23;;;3.20;;
57707;SDS011;43540;51.690;9.562;2023-09-19T08:27:01;7.63;;;2.90;;
57707;SDS011;43540;51.690;9.562;2023-09-19T08:29:30;8.15;;;3.25;;
57707;SDS011;43540;51.690;9.562;2023-09-19T08:31:57;7.60;;;3.25;;
57707;SDS011;43540;51.690;9.562;2023-09-19T08:34:25;13.90;;;3.45;;
57707;SDS011;43540;51.690;9.562;2023-09-19T08:36:53;7.13;;;3.35;;
57707;SDS011;43540;51.690;9.562;2023-09-19T08:39:23;7.85;;;3.33;;
57707;SDS011;43540;51.690;9.562;2023-09-19T08:41:58;9.93;;;3.50;;
57707;SDS011;43540;51.690;9.562;2023-09-19T08:44:28;8.20;;;3.42;;
57707;SDS011;43540;51.690;9.562;2023-09-19T08:47:14;6.55;;;3.22;;
57707;SDS011;43540;51.690;9.562;2023-09-19T08:52:20;8.20;;;3.60;;
57707;SDS011;43540;51.690;9.562;2023-09-19T08:54:52;8.85;;;3.38;;
57707;SDS011;43540;51.690;9.562;2023-09-19T08:57:23;7.65;;;3.17;;
57707;SDS011;43540;51.690;9.562;2023-09-19T08:59:56;8.52;;;3.67;;
57707;SDS011;43540;51.690;9.562;2023-09-19T09:02:23;6.55;;;2.97;;
57707;SDS011;43540;51.690;9.562;2023-09-19T09:04:51;9.07;;;3.50;;
57707;SDS011;43540;51.690;9.562;2023-09-19T09:07:24;10.68;;;3.88;;
57707;SDS011;43540;51.690;9.562;2023-09-19T09:09:51;9.10;;;3.70;;
57707;SDS011;43540;51.690;9.562;2023-09-19T09:12:18;8.45;;;3.17;;
57707;SDS011;43540;51.690;9.562;2023-09-19T09:14:45;9.05;;;3.63;;
57707;SDS011;43540;51.690;9.562;2023-09-19T09:17:16;11.18;;;3.70;;
57707;SDS011;43540;51.690;9.562;2023-09-19T09:19:47;8.60;;;3.33;;
57707;SDS011;43540;51.690;9.562;2023-09-19T09:22:14;8.93;;;3.80;;
57707;SDS011;43540;51.690;9.562;2023-09-19T09:24:55;8.30;;;3.45;;
57707;SDS011;43540;51.690;9.562;2023-09-19T09:27:33;9.80;;;3.47;;
57707;SDS011;43540;51.690;9.562;2023-09-19T09:30:00;6.80;;;3.00;;
57707;SDS011;43540;51.690;9.562;2023-09-19T09:32:27;7.28;;;3.22;;
57707;SDS011;43540;51.690;9.562;2023-09-19T09:34:56;9.63;;;3.03;;
57707;SDS011;43540;51.690;9.562;2023-09-19T09:37:28;5.18;;;3.00;;
57707;SDS011;43540;51.690;9.562;2023-09-19T09:40:00;10.45;;;3.38;;
57707;SDS011;43540;51.690;9.562;2023-09-19T09:42:43;10.10;;;3.25;;
57707;SDS011;43540;51.690;9.562;2023-09-19T09:50:34;9.57;;;3.33;;
57707;SDS011;43540;51.690;9.562;2023-09-19T09:53:20;7.18;;;3.00;;
57707;SDS011;43540;51.690;9.562;2023-09-19T09:56:05;7.10;;;3.13;;
57707;SDS011;43540;51.690;9.562;2023-09-19T09:58:50;9.10;;;3.33;;
57707;SDS011;43540;51.690;9.562;2023-09-19T10:01:22;9.88;;;3.08;;
57707;SDS011;43540;51.690;9.562;2023-09-19T10:03:59;11.48;;;3.42;;
57707;SDS011;43540;51.690;9.562;2023-09-19T10:06:39;6.32;;;2.70;;
57707;SDS011;43540;51.690;9.562;2023-09-19T10:09:13;7.70;;;2.97;;
57707;SDS011;43540;51.690;9.562;2023-09-19T10:11:44;9.20;;;3.05;;
57707;SDS011;43540;51.690;9.562;2023-09-19T10:14:16;6.32;;;2.75;;
57707;SDS011;43540;51.690;9.562;2023-09-19T10:16:52;7.22;;;2.42;;
57707;SDS011;43540;51.690;9.562;2023-09-19T10:19:32;9.75;;;3.05;;
57707;SDS011;43540;51.690;9.562;2023-09-19T10:22:04;6.00;;;2.67;;
57707;SDS011;43540;51.690;9.562;2023-09-19T10:24:34;13.63;;;3.42;;
57707;SDS011;43540;51.690;9.562;2023-09-19T10:27:14;10.00;;;3.70;;
57707;SDS011;43540;51.690;9.562;2023-09-19T10:29:42;10.63;;;3.50;;
57707;SDS011;43540;51.690;9.562;2023-09-19T10:32:14;8.60;;;3.33;;
57707;SDS011;43540;51.690;9.562;2023-09-19T10:34:49;7.65;;;3.42;;
57707;SDS011;43540;51.690;9.562;2023-09-19T10:37:16;10.02;;;3.38;;
57707;SDS011;43540;51.690;9.562;2023-09-19T10:39:45;8.55;;;2.90;;
57707;SDS011;43540;51.690;9.562;2023-09-19T10:42:14;7.55;;;2.97;;
57707;SDS011;43540;51.690;9.562;2023-09-19T10:44:51;8.20;;;2.67;;
57707;SDS011;43540;51.690;9.562;2023-09-19T10:47:21;8.48;;;2.70;;
57707;SDS011;43540;51.690;9.562;2023-09-19T10:49:51;9.68;;;2.80;;
57707;SDS011;43540;51.690;9.562;2023-09-19T10:52:23;10.00;;;2.60;;
57707;SDS011;43540;51.690;9.562;2023-09-19T10:54:53;8.85;;;2.70;;
57707;SDS011;43540;51.690;9.562;2023-09-19T10:57:24;8.23;;;2.63;;
57707;SDS011;43540;51.690;9.562;2023-09-19T11:00:04;9.02;;;2.35;;
57707;SDS011;43540;51.690;9.562;2023-09-19T11:05:41;6.20;;;2.33;;
57707;SDS011;43540;51.690;9.562;2023-09-19T11:08:08;7.15;;;2.25;;
57707;SDS011;43540;51.690;9.562;2023-09-19T11:10:47;6.25;;;2.30;;
57707;SDS011;43540;51.690;9.562;2023-09-19T11:13:33;8.77;;;2.75;;
57707;SDS011;43540;51.690;9.562;2023-09-19T11:16:04;8.13;;;2.05;;
57707;SDS011;43540;51.690;9.562;2023-09-19T11:26:51;6.57;;;2.33;;
57707;SDS011;43540;51.690;9.562;2023-09-19T11:29:40;6.78;;;2.35;;
57707;SDS011;43540;51.690;9.562;2023-09-19T11:32:07;6.30;;;2.30;;
57707;SDS011;43540;51.690;9.562;2023-09-19T11:42:48;8.88;;;2.28;;
57707;SDS011;43540;51.690;9.562;2023-09-19T11:48:24;7.82;;;2.45;;
57707;SDS011;43540;51.690;9.562;2023-09-19T11:50:53;10.80;;;2.70;;
57707;SDS011;43540;51.690;9.562;2023-09-19T11:53:21;8.30;;;2.38;;
57707;SDS011;43540;51.690;9.562;2023-09-19T11:55:49;6.63;;;2.85;;
57707;SDS011;43540;51.690;9.562;2023-09-19T11:58:17;6.32;;;2.50;;
57707;SDS011;43540;51.690;9.562;2023-09-19T12:00:46;8.73;;;2.47;;
57707;SDS011;43540;51.690;9.562;2023-09-19T12:03:23;6.60;;;2.75;;
57707;SDS011;43540;51.690;9.562;2023-09-19T12:05:57;6.55;;;2.25;;
57707;SDS011;43540;51.690;9.562;2023-09-19T12:08:25;6.82;;;2.50;;
57707;SDS011;43540;51.690;9.562;2023-09-19T12:10:53;9.70;;;2.42;;
57707;SDS011;43540;51.690;9.562;2023-09-19T12:13:22;9.13;;;2.45;;
57707;SDS011;43540;51.690;9.562;2023-09-19T12:15:49;6.90;;;2.38;;
57707;SDS011;43540;51.690;9.562;2023-09-19T12:18:28;6.70;;;2.75;;
57707;SDS011;43540;51.690;9.562;2023-09-19T12:20:56;5.85;;;2.80;;
57707;SDS011;43540;51.690;9.562;2023-09-19T12:23:36;13.65;;;3.05;;
57707;SDS011;43540;51.690;9.562;2023-09-19T12:26:04;9.07;;;2.50;;
57707;SDS011;43540;51.690;9.562;2023-09-19T12:28:41;9.73;;;2.60;;
57707;SDS011;43540;51.690;9.562;2023-09-19T12:31:11;9.02;;;2.60;;
57707;SDS011;43540;51.690;9.562;2023-09-19T12:33:38;6.13;;;2.60;;
57707;SDS011;43540;51.690;9.562;2023-09-19T12:36:22;6.88;;;2.55;;
57707;SDS011;43540;51.690;9.562;2023-09-19T12:38:56;9.98;;;2.75;;
57707;SDS011;43540;51.690;9.562;2023-09-19T12:41:26;5.90;;;2.40;;
57707;SDS011;43540;51.690;9.562;2023-09-19T12:43:53;6.25;;;2.60;;
57707;SDS011;43540;51.690;9.562;2023-09-19T12:46:21;7.30;;;2.58;;
57707;SDS011;43540;51.690;9.562;2023-09-19T12:51:46;9.90;;;2.70;;
57707;SDS011;43540;51.690;9.562;2023-09-19T12:54:16;6.82;;;2.60;;
57707;SDS011;43540;51.690;9.562;2023-09-19T12:56:46;6.78;;;2.25;;
57707;SDS011;43540;51.690;9.562;2023-09-19T12:59:15;8.52;;;2.60;;
57707;SDS011;43540;51.690;9.562;2023-09-19T13:01:43;5.00;;;2.35;;
57707;SDS011;43540;51.690;9.562;2023-09-19T13:04:20;5.38;;;2.30;;
57707;SDS011;43540;51.690;9.562;2023-09-19T13:06:56;7.20;;;2.60;;
57707;SDS011;43540;51.690;9.562;2023-09-19T13:09:27;8.30;;;2.78;;
57707;SDS011;43540;51.690;9.562;2023-09-19T13:12:01;8.60;;;2.28;;
57707;SDS011;43540;51.690;9.562;2023-09-19T13:14:36;9.40;;;2.58;;
57707;SDS011;43540;51.690;9.562;2023-09-19T13:17:11;7.63;;;2.22;;
57707;SDS011;43540;51.690;9.562;2023-09-19T13:19:46;7.63;;;2.83;;
57707;SDS011;43540;51.690;9.562;2023-09-19T13:25:21;5.25;;;2.40;;
57707;SDS011;43540;51.690;9.562;2023-09-19T13:27:49;6.53;;;2.40;;
57707;SDS011;43540;51.690;9.562;2023-09-19T13:30:24;4.38;;;2.10;;
57707;SDS011;43540;51.690;9.562;2023-09-19T13:32:52;4.50;;;2.30;;
57707;SDS011;43540;51.690;9.562;2023-09-19T13:35:34;7.97;;;2.47;;
57707;SDS011;43540;51.690;9.562;2023-09-19T13:38:00;6.60;;;2.65;;
57707;SDS011;43540;51.690;9.562;2023-09-19T13:40:27;6.78;;;2.25;;
57707;SDS011;43540;51.690;9.562;2023-09-19T13:42:58;7.00;;;2.10;;
57707;SDS011;43540;51.690;9.562;2023-09-19T13:45:25;8.65;;;2.45;;
57707;SDS011;43540;51.690;9.562;2023-09-19T13:47:53;3.25;;;2.00;;
57707;SDS011;43540;51.690;9.562;2023-09-19T13:50:20;5.80;;;2.03;;
57707;SDS011;43540;51.690;9.562;2023-09-19T13:52:51;8.02;;;2.58;;
57707;SDS011;43540;51.690;9.562;2023-09-19T13:55:18;5.45;;;2.08;;
57707;SDS011;43540;51.690;9.562;2023-09-19T13:57:48;8.40;;;2.15;;
57707;SDS011;43540;51.690;9.562;2023-09-19T14:00:21;6.18;;;2.53;;
57707;SDS011;43540;51.690;9.562;2023-09-19T14:02:49;7.57;;;2.40;;
57707;SDS011;43540;51.690;9.562;2023-09-19T14:05:18;10.85;;;2.38;;
57707;SDS011;43540;51.690;9.562;2023-09-19T14:07:45;5.05;;;1.92;;
57707;SDS011;43540;51.690;9.562;2023-09-19T14:10:13;4.10;;;1.70;;
57707;SDS011;43540;51.690;9.562;2023-09-19T14:12:40;6.90;;;1.85;;
57707;SDS011;43540;51.690;9.562;2023-09-19T14:15:11;5.95;;;1.98;;
57707;SDS011;43540;51.690;9.562;2023-09-19T14:17:39;7.03;;;1.85;;
57707;SDS011;43540;51.690;9.562;2023-09-19T14:20:09;5.85;;;2.28;;
57707;SDS011;43540;51.690;9.562;2023-09-19T14:22:37;8.05;;;2.28;;
57707;SDS011;43540;51.690;9.562;2023-09-19T14:25:04;8.32;;;2.15;;
57707;SDS011;43540;51.690;9.562;2023-09-19T14:27:31;5.10;;;1.88;;
57707;SDS011;43540;51.690;9.562;2023-09-19T14:29:58;5.90;;;2.25;;
57707;SDS011;43540;51.690;9.562;2023-09-19T14:32:25;7.80;;;2.00;;
57707;SDS011;43540;51.690;9.562;2023-09-19T14:34:52;6.43;;;1.75;;
57707;SDS011;43540;51.690;9.562;2023-09-19T14:37:19;4.65;;;1.98;;
57707;SDS011;43540;51.690;9.562;2023-09-19T14:39:47;4.10;;;1.77;;
57707;SDS011;43540;51.690;9.562;2023-09-19T14:42:14;4.90;;;2.03;;
57707;SDS011;43540;51.690;9.562;2023-09-19T14:44:44;5.93;;;2.13;;
57707;SDS011;43540;51.690;9.562;2023-09-19T14:47:11;5.00;;;1.73;;
57707;SDS011;43540;51.690;9.562;2023-09-19T14:49:40;3.78;;;1.95;;
57707;SDS011;43540;51.690;9.562;2023-09-19T14:52:07;7.05;;;2.28;;
57707;SDS011;43540;51.690;9.562;2023-09-19T14:54:36;6.28;;;1.92;;
57707;SDS011;43540;51.690;9.562;2023-09-19T14:57:08;5.93;;;2.10;;
57707;SDS011;43540;51.690;9.562;2023-09-19T14:59:35;4.18;;;1.63;;
57707;SDS011;43540;51.690;9.562;2023-09-19T15:02:04;8.13;;;2.75;;
57707;SDS011;43540;51.690;9.562;2023-09-19T15:04:31;4.25;;;1.95;;
57707;SDS011;43540;51.690;9.562;2023-09-19T15:06:58;5.82;;;2.10;;
57707;SDS011;43540;51.690;9.562;2023-09-19T15:09:26;4.43;;;2.20;;
57707;SDS011;43540;51.690;9.562;2023-09-19T15:11:53;5.57;;;2.10;;
57707;SDS011;43540;51.690;9.562;2023-09-19T15:14:20;6.10;;;1.90;;
57707;SDS011;43540;51.690;9.562;2023-09-19T15:16:47;6.40;;;2.20;;
57707;SDS011;43540;51.690;9.562;2023-09-19T15:19:16;6.55;;;2.30;;
57707;SDS011;43540;51.690;9.562;2023-09-19T15:21:43;5.78;;;2.00;;
57707;SDS011;43540;51.690;9.562;2023-09-19T15:24:10;6.20;;;2.28;;
57707;SDS011;43540;51.690;9.562;2023-09-19T15:26:37;3.63;;;1.95;;
57707;SDS011;43540;51.690;9.562;2023-09-19T15:29:07;5.35;;;2.30;;
57707;SDS011;43540;51.690;9.562;2023-09-19T15:31:34;5.68;;;2.00;;
57707;SDS011;43540;51.690;9.562;2023-09-19T15:34:05;5.43;;;2.35;;
57707;SDS011;43540;51.690;9.562;2023-09-19T15:36:34;5.75;;;1.90;;
57707;SDS011;43540;51.690;9.562;2023-09-19T15:41:33;6.65;;;2.33;;
57707;SDS011;43540;51.690;9.562;2023-09-19T15:44:11;5.40;;;2.08;;
57707;SDS011;43540;51.690;9.562;2023-09-19T15:46:40;8.65;;;2.83;;
57707;SDS011;43540;51.690;9.562;2023-09-19T15:49:07;5.03;;;2.33;;
57707;SDS011;43540;51.690;9.562;2023-09-19T15:51:35;3.55;;;1.90;;
57707;SDS011;43540;51.690;9.562;2023-09-19T15:54:09;4.10;;;2.00;;
57707;SDS011;43540;51.690;9.562;2023-09-19T15:56:42;6.07;;;2.17;;
57707;SDS011;43540;51.690;9.562;2023-09-19T15:59:10;5.10;;;2.40;;
57707;SDS011;43540;51.690;9.562;2023-09-19T16:01:40;6.35;;;2.03;;
57707;SDS011;43540;51.690;9.562;2023-09-19T16:04:09;6.40;;;2.15;;